^^
Saratoga-Weather Station Historical Data
Daily Summary for March 02, 2021 Units:  English    Metric   Both
Daily Weekly Monthly Yearly Custom
  High: Low: Average:
Temperature: 61.9 °F 34.3 °F 45.5 °F
Dew Point: 41.9 °F 31.6 °F 36.7 °F
Humidity: 93% 44% 73%
Wind Speed: 6mph 0mph 0.6mph
Wind Gust: 7mph - -
Wind- - ESE
Pressure: 30.5 in 30.4 in -
Precipitation: 0 in    
Historical Graphs
 
 
Tabular Data for March 02, 2021
Time Temperature Dew Point Pressure Wind Wind Speed Wind Gust Humidity Rainfall Rate (Hourly) solar
00:03 39.4 °F 34.7 °F 30.4 in Calm     83% 0 in 0 W/m2
00:08 39.4 °F 34.7 °F 30.4 in SE 0.9 mph 2 mph 83% 0 in 0 W/m2
00:13 39.2 °F 34.5 °F 30.4 in Calm   1 mph 83% 0 in 0 W/m2
00:18 39 °F 34.3 °F 30.4 in Calm   2 mph 83% 0 in 0 W/m2
00:23 39 °F 34.3 °F 30.4 in Calm     83% 0 in 0 W/m2
00:28 38.8 °F 34.3 °F 30.4 in Calm   2 mph 84% 0 in 0 W/m2
00:33 38.8 °F 34.3 °F 30.4 in SE 0.9 mph 2 mph 84% 0 in 0 W/m2
00:38 38.7 °F 34.2 °F 30.4 in Calm   2 mph 84% 0 in 0 W/m2
00:43 38.7 °F 34.5 °F 30.4 in Calm   1 mph 85% 0 in 0 W/m2
00:49 38.7 °F 34.5 °F 30.4 in Calm   1 mph 85% 0 in 0 W/m2
00:54 38.7 °F 34.5 °F 30.4 in Calm   1 mph 85% 0 in 0 W/m2
00:59 38.7 °F 34.5 °F 30.4 in Calm     85% 0 in 0 W/m2
01:04 38.7 °F 34.5 °F 30.4 in SE 0.9 mph 1 mph 85% 0 in 0 W/m2
01:09 38.5 °F 34.3 °F 30.4 in Calm   1 mph 85% 0 in 0 W/m2
01:14 38.5 °F 34.3 °F 30.4 in Calm     85% 0 in 0 W/m2
01:19 38.3 °F 34.2 °F 30.4 in Calm     85% 0 in 0 W/m2
01:24 38.1 °F 34 °F 30.4 in Calm     85% 0 in 0 W/m2
01:29 38.1 °F 34.3 °F 30.4 in Calm     86% 0 in 0 W/m2
01:34 38.1 °F 34.3 °F 30.4 in Calm     86% 0 in 0 W/m2
01:39 38.3 °F 34.5 °F 30.4 in Calm     86% 0 in 0 W/m2
01:44 38.5 °F 34.3 °F 30.4 in Calm     85% 0 in 0 W/m2
01:49 38.1 °F 34 °F 30.4 in SE 0.9 mph 1 mph 85% 0 in 0 W/m2
01:54 38.1 °F 34 °F 30.4 in Calm     85% 0 in 0 W/m2
01:59 37.9 °F 33.8 °F 30.4 in Calm   1 mph 85% 0 in 0 W/m2
02:04 37.9 °F 33.8 °F 30.4 in Calm     85% 0 in 0 W/m2
02:09 37.8 °F 33.6 °F 30.4 in Calm     85% 0 in 0 W/m2
02:14 37.6 °F 33.8 °F 30.4 in Calm   1 mph 86% 0 in 0 W/m2
02:19 37.8 °F 34 °F 30.4 in Calm     86% 0 in 0 W/m2
02:24 37.8 °F 34 °F 30.4 in Calm   1 mph 86% 0 in 0 W/m2
02:29 37.8 °F 34 °F 30.4 in Calm     86% 0 in 0 W/m2
02:34 37.6 °F 33.8 °F 30.4 in Calm     86% 0 in 0 W/m2
02:39 37.4 °F 33.6 °F 30.4 in Calm     86% 0 in 0 W/m2
02:44 37.2 °F 33.4 °F 30.4 in Calm     86% 0 in 0 W/m2
02:49 37.2 °F 33.4 °F 30.4 in Calm     86% 0 in 0 W/m2
02:54 37 °F 33.6 °F 30.4 in Calm     87% 0 in 0 W/m2
02:59 37 °F 33.6 °F 30.4 in Calm     87% 0 in 0 W/m2
03:04 37 °F 33.6 °F 30.4 in Calm     87% 0 in 0 W/m2
03:09 36.9 °F 33.4 °F 30.4 in Calm     87% 0 in 0 W/m2
03:14 36.9 °F 33.6 °F 30.4 in Calm     88% 0 in 0 W/m2
03:19 36.7 °F 33.4 °F 30.4 in Calm     88% 0 in 0 W/m2
03:24 36.7 °F 33.4 °F 30.4 in Calm   1 mph 88% 0 in 0 W/m2
03:29 36.5 °F 33.3 °F 30.4 in Calm   1 mph 88% 0 in 0 W/m2
03:34 36.3 °F 33.1 °F 30.4 in Calm     88% 0 in 0 W/m2
03:39 36.3 °F 33.4 °F 30.4 in Calm   1 mph 89% 0 in 0 W/m2
03:44 36.3 °F 33.4 °F 30.4 in Calm   1 mph 89% 0 in 0 W/m2
03:49 36.5 °F 33.6 °F 30.4 in Calm   1 mph 89% 0 in 0 W/m2
03:54 36.7 °F 33.8 °F 30.4 in Calm     89% 0 in 0 W/m2
03:59 36.7 °F 33.8 °F 30.4 in Calm   1 mph 89% 0 in 0 W/m2
04:04 36.7 °F 33.4 °F 30.4 in SE 2 mph 2 mph 88% 0 in 0 W/m2
04:09 36.5 °F 33.6 °F 30.4 in Calm     89% 0 in 0 W/m2
04:14 36.7 °F 33.8 °F 30.4 in Calm     89% 0 in 0 W/m2
04:19 36.5 °F 33.3 °F 30.4 in Calm     88% 0 in 0 W/m2
04:24 36.3 °F 33.1 °F 30.4 in Calm     88% 0 in 0 W/m2
04:29 36.1 °F 32.9 °F 30.4 in Calm     88% 0 in 0 W/m2
04:34 36.1 °F 32.9 °F 30.4 in Calm     88% 0 in 0 W/m2
04:39 36 °F 32.7 °F 30.4 in Calm     88% 0 in 0 W/m2
04:44 36 °F 33.1 °F 30.4 in Calm     89% 0 in 0 W/m2
04:49 36.1 °F 33.3 °F 30.4 in SE 0.9 mph 2 mph 89% 0 in 0 W/m2
04:54 36.1 °F 33.3 °F 30.4 in Calm   2 mph 89% 0 in 0 W/m2
04:59 36.1 °F 32.9 °F 30.4 in Calm     88% 0 in 0 W/m2
05:04 36 °F 32.7 °F 30.4 in Calm     88% 0 in 0 W/m2
05:09 36 °F 32.7 °F 30.4 in Calm     88% 0 in 0 W/m2
05:14 35.8 °F 32.9 °F 30.4 in Calm     89% 0 in 0 W/m2
05:19 35.8 °F 32.9 °F 30.4 in Calm     89% 0 in 0 W/m2
05:24 35.6 °F 32.7 °F 30.4 in Calm     89% 0 in 0 W/m2
05:29 35.4 °F 32.5 °F 30.4 in Calm     89% 0 in 0 W/m2
05:34 35.6 °F 32.7 °F 30.4 in Calm     89% 0 in 0 W/m2
05:39 35.8 °F 32.9 °F 30.4 in Calm     89% 0 in 0 W/m2
05:44 36 °F 33.1 °F 30.4 in Calm     89% 0 in 0 W/m2
05:49 36 °F 33.1 °F 30.4 in Calm     89% 0 in 0 W/m2
05:54 35.8 °F 32.9 °F 30.4 in Calm     89% 0 in 0 W/m2
05:59 35.8 °F 32.9 °F 30.4 in Calm     89% 0 in 0 W/m2
06:04 35.8 °F 32.9 °F 30.4 in Calm     89% 0 in 0 W/m2
06:09 35.8 °F 32.9 °F 30.4 in Calm     89% 0 in 0 W/m2
06:14 35.8 °F 32.9 °F 30.4 in Calm     89% 0 in 0 W/m2
06:19 35.8 °F 32.9 °F 30.4 in Calm     89% 0 in 0 W/m2
06:24 35.8 °F 32.9 °F 30.4 in Calm     89% 0 in 0 W/m2
06:29 35.8 °F 32.9 °F 30.4 in Calm     89% 0 in 0 W/m2
06:34 35.8 °F 32.9 °F 30.4 in Calm     89% 0 in 0 W/m2
06:39 35.6 °F 32.4 °F 30.4 in Calm     88% 0 in 0 W/m2
06:44 35.4 °F 32.2 °F 30.4 in Calm     88% 0 in 0 W/m2
06:49 35.2 °F 32.4 °F 30.4 in Calm     89% 0 in 0 W/m2
06:54 35.1 °F 32.2 °F 30.4 in Calm     89% 0 in 0 W/m2
06:59 35.1 °F 32.2 °F 30.4 in Calm     89% 0 in 0 W/m2
07:04 35.1 °F 32.4 °F 30.4 in Calm     90% 0 in 0 W/m2
07:09 35.1 °F 32.4 °F 30.4 in Calm     90% 0 in 0 W/m2
07:19 35.1 °F 32.4 °F 30.4 in Calm     90% 0 in 5 W/m2
07:24 35.1 °F 32.4 °F 30.4 in Calm     90% 0 in 7 W/m2
07:29 35.1 °F 32.4 °F 30.4 in Calm     90% 0 in 9 W/m2
07:34 34.9 °F 32.2 °F 30.4 in Calm     90% 0 in 11 W/m2
07:39 34.7 °F 32 °F 30.4 in Calm     90% 0 in 14 W/m2
07:44 34.5 °F 31.8 °F 30.4 in Calm     90% 0 in 16 W/m2
07:49 34.3 °F 31.6 °F 30.4 in Calm     90% 0 in 18 W/m2
07:54 34.3 °F 31.6 °F 30.4 in Calm     90% 0 in 19 W/m2
07:59 34.3 °F 31.6 °F 30.4 in Calm     90% 0 in 21 W/m2
08:04 34.3 °F 32 °F 30.4 in Calm   1 mph 91% 0 in 23 W/m2
08:09 34.3 °F 32 °F 30.4 in Calm     91% 0 in 28 W/m2
08:14 34.3 °F 32 °F 30.4 in Calm   1 mph 91% 0 in 35 W/m2
08:24 34.3 °F 32.2 °F 30.4 in Calm     92% 0 in 35 W/m2
08:29 34.5 °F 32.4 °F 30.4 in Calm     92% 0 in 39 W/m2
08:34 34.7 °F 32.5 °F 30.4 in Calm     92% 0 in 58 W/m2
08:39 34.9 °F 32.7 °F 30.4 in Calm     92% 0 in 47 W/m2
08:44 35.1 °F 32.9 °F 30.4 in Calm     92% 0 in 120 W/m2
08:49 35.4 °F 33.3 °F 30.4 in Calm     92% 0 in 141 W/m2
08:54 36 °F 34.2 °F 30.4 in Calm   1 mph 93% 0 in 158 W/m2
08:59 36.3 °F 34.5 °F 30.4 in Calm     93% 0 in 172 W/m2
09:04 37 °F 35.2 °F 30.4 in Calm   1 mph 93% 0 in 185 W/m2
09:09 37.9 °F 35.8 °F 30.4 in Calm   2 mph 92% 0 in 202 W/m2
09:14 39 °F 36.3 °F 30.4 in ESE 0.9 mph 2 mph 90% 0 in 190 W/m2
09:19 39.9 °F 36.3 °F 30.4 in ESE 0.9 mph 2 mph 87% 0 in 230 W/m2
09:24 40.8 °F 36.7 °F 30.4 in ESE 0.9 mph 2 mph 85% 0 in 236 W/m2
09:29 41.7 °F 36.9 °F 30.4 in ESE 0.9 mph 1 mph 83% 0 in 69 W/m2
09:34 42.4 °F 36.7 °F 30.4 in ESE 0.9 mph 2 mph 80% 0 in 269 W/m2
09:39 43.2 °F 37 °F 30.4 in ESE 0.9 mph 2 mph 79% 0 in 283 W/m2
09:44 43.3 °F 36.7 °F 30.4 in Calm   2 mph 77% 0 in 295 W/m2
09:49 44.1 °F 37 °F 30.5 in ENE 0.9 mph 1 mph 76% 0 in 308 W/m2
09:54 44.4 °F 37 °F 30.5 in Calm   2 mph 75% 0 in 322 W/m2
09:59 44.8 °F 36.7 °F 30.4 in ENE 2 mph 4 mph 73% 0 in 332 W/m2
10:04 44.6 °F 36.9 °F 30.4 in Calm   3 mph 74% 0 in 343 W/m2
10:09 44.8 °F 37 °F 30.4 in ENE 2 mph 3 mph 74% 0 in 353 W/m2
10:14 45.1 °F 37.4 °F 30.5 in ESE 0.9 mph 2 mph 74% 0 in 366 W/m2
10:19 45.7 °F 37.6 °F 30.4 in ESE 0.9 mph 3 mph 73% 0 in 374 W/m2
10:24 46 °F 37.6 °F 30.5 in East 0.9 mph 4 mph 72% 0 in 385 W/m2
10:29 46.4 °F 37.6 °F 30.5 in East 2 mph 4 mph 71% 0 in 394 W/m2
10:34 46.8 °F 37.6 °F 30.4 in ESE 2.9 mph 4 mph 70% 0 in 404 W/m2
10:39 46.9 °F 37.2 °F 30.4 in Calm   4 mph 69% 0 in 411 W/m2
10:44 46.9 °F 37.2 °F 30.4 in East 2 mph 4 mph 69% 0 in 420 W/m2
10:49 47.5 °F 37.8 °F 30.4 in ESE 4 mph 6 mph 69% 0 in 429 W/m2
10:54 47.8 °F 37.8 °F 30.4 in ENE 2 mph 5 mph 68% 0 in 438 W/m2
10:59 47.8 °F 37.4 °F 30.4 in ESE 2 mph 5 mph 67% 0 in 445 W/m2
11:04 48 °F 37.9 °F 30.4 in Calm   3 mph 68% 0 in 454 W/m2
11:09 48.6 °F 38.1 °F 30.4 in ESE 0.9 mph 5 mph 67% 0 in 461 W/m2
11:14 49.1 °F 38.7 °F 30.4 in ENE 2 mph 4 mph 67% 0 in 469 W/m2
11:19 49.5 °F 38.1 °F 30.4 in ENE 2 mph 3 mph 65% 0 in 478 W/m2
11:24 50 °F 38.7 °F 30.4 in ESE 0.9 mph 4 mph 65% 0 in 469 W/m2
11:29 50.5 °F 38.8 °F 30.4 in SE 2 mph 3 mph 64% 0 in 374 W/m2
11:34 50.7 °F 39 °F 30.4 in East 0.9 mph 4 mph 64% 0 in 297 W/m2
11:39 51.1 °F 39.4 °F 30.4 in East 2.9 mph 4 mph 64% 0 in 339 W/m2
11:44 51.3 °F 39 °F 30.4 in SE 2 mph 4 mph 63% 0 in 281 W/m2
11:50 51.4 °F 39.2 °F 30.4 in ENE 2.9 mph 6 mph 63% 0 in 346 W/m2
11:55 51.4 °F 39.2 °F 30.4 in ENE 2 mph 4 mph 63% 0 in 399 W/m2
12:00 51.8 °F 39.6 °F 30.4 in East 0.9 mph 6 mph 63% 0 in 475 W/m2
12:05 52.2 °F 39.6 °F 30.4 in SE 2.9 mph 4 mph 62% 0 in 522 W/m2
12:10 52.3 °F 39.7 °F 30.4 in ESE 2 mph 3 mph 62% 0 in 527 W/m2
12:15 52.9 °F 39.7 °F 30.4 in ENE 2.9 mph 5 mph 61% 0 in 529 W/m2
12:20 53.2 °F 40.1 °F 30.4 in ENE 2.9 mph 4 mph 61% 0 in 533 W/m2
12:25 53.6 °F 39.6 °F 30.4 in ENE 2.9 mph 6 mph 59% 0 in 534 W/m2
12:30 53.8 °F 40.3 °F 30.4 in ESE 0.9 mph 4 mph 60% 0 in 536 W/m2
12:35 54.3 °F 40.8 °F 30.4 in East 2 mph 6 mph 60% 0 in 538 W/m2
12:40 55 °F 40.5 °F 30.4 in NE 2 mph 4 mph 58% 0 in 540 W/m2
12:45 55.2 °F 40.3 °F 30.4 in ESE 4 mph 6 mph 57% 0 in 541 W/m2
12:50 55.6 °F 40.1 °F 30.4 in NE 2.9 mph 4 mph 56% 0 in 540 W/m2
12:55 55.6 °F 40.6 °F 30.4 in ESE 0.9 mph 3 mph 57% 0 in 538 W/m2
13:00 55.8 °F 40.8 °F 30.4 in ENE 4 mph 4 mph 57% 0 in 540 W/m2
13:05 56.1 °F 40.6 °F 30.4 in Calm   5 mph 56% 0 in 538 W/m2
13:10 56.7 °F 40.6 °F 30.4 in Calm   2 mph 55% 0 in 536 W/m2
13:15 57 °F 40.5 °F 30.4 in East 2 mph 7 mph 54% 0 in 517 W/m2
13:20 57.4 °F 40.8 °F 30.4 in SSE 0.9 mph 3 mph 54% 0 in 230 W/m2
13:25 57.6 °F 40.6 °F 30.4 in ESE 2 mph 4 mph 53% 0 in 185 W/m2
13:30 57.7 °F 40.3 °F 30.4 in ESE 0.9 mph 5 mph 52% 0 in 195 W/m2
13:35 57.7 °F 40.6 °F 30.4 in ESE 0.9 mph 6 mph 53% 0 in 232 W/m2
13:40 57.7 °F 40.3 °F 30.4 in NE 2.9 mph 7 mph 52% 0 in 265 W/m2
13:45 57.7 °F 40.6 °F 30.4 in ESE 2.9 mph 4 mph 53% 0 in 162 W/m2
13:50 57.9 °F 40.8 °F 30.4 in SE 0.9 mph 7 mph 53% 0 in 195 W/m2
13:55 58.1 °F 41 °F 30.4 in ESE 4 mph 6 mph 53% 0 in 195 W/m2
14:00 58.3 °F 40.3 °F 30.4 in ESE 2 mph 7 mph 51% 0 in 179 W/m2
14:05 58.5 °F 41.4 °F 30.4 in Calm   6 mph 53% 0 in 163 W/m2
14:10 58.6 °F 40.6 °F 30.4 in East 2 mph 4 mph 51% 0 in 163 W/m2
14:15 58.8 °F 40.8 °F 30.4 in ESE 2 mph 6 mph 51% 0 in 153 W/m2
14:20 59.2 °F 41 °F 30.4 in ESE 2.9 mph 6 mph 51% 0 in 178 W/m2
14:25 59.2 °F 41 °F 30.4 in SE 2.9 mph 4 mph 51% 0 in 276 W/m2
14:30 59.4 °F 41.2 °F 30.4 in SE 2.9 mph 4 mph 51% 0 in 403 W/m2
14:35 59.5 °F 40.8 °F 30.4 in ESE 2.9 mph 6 mph 50% 0 in 413 W/m2
14:40 59.7 °F 41 °F 30.4 in East 2 mph 3 mph 50% 0 in 450 W/m2
14:45 60.1 °F 41.4 °F 30.4 in East 2 mph 4 mph 50% 0 in 443 W/m2
14:50 60.4 °F 41.2 °F 30.4 in East 2.9 mph 3 mph 49% 0 in 424 W/m2
14:55 60.6 °F 41.9 °F 30.4 in Calm   2 mph 50% 0 in 418 W/m2
15:00 60.6 °F 41.4 °F 30.4 in ESE 0.9 mph 2 mph 49% 0 in 410 W/m2
15:06 61 °F 40.6 °F 30.4 in East 2 mph 3 mph 47% 0 in 392 W/m2
15:11 61.2 °F 40.8 °F 30.4 in East 0.9 mph 1 mph 47% 0 in 318 W/m2
15:16 61.3 °F 40.5 °F 30.4 in SE 0.9 mph 4 mph 46% 0 in 394 W/m2
15:21 61.3 °F 40.5 °F 30.4 in ESE 4 mph 6 mph 46% 0 in 381 W/m2
15:26 61.3 °F 39.7 °F 30.4 in East 4.9 mph 5 mph 45% 0 in 369 W/m2
15:31 61.5 °F 39.9 °F 30.4 in East 2 mph 5 mph 45% 0 in 360 W/m2
15:36 61.5 °F 39.4 °F 30.4 in ESE 2 mph 7 mph 44% 0 in 346 W/m2
15:41 61.5 °F 39.4 °F 30.4 in East 6 mph 6 mph 44% 0 in 338 W/m2
15:46 61.7 °F 40.1 °F 30.4 in ESE 2 mph 4 mph 45% 0 in 325 W/m2
15:51 61.7 °F 39.6 °F 30.4 in ESE 2.9 mph 7 mph 44% 0 in 318 W/m2
15:56 61.7 °F 40.1 °F 30.4 in SE 0.9 mph 3 mph 45% 0 in 306 W/m2
16:01 61.7 °F 40.6 °F 30.4 in East 0.9 mph 2 mph 46% 0 in 292 W/m2
16:06 61.9 °F 40.8 °F 30.4 in East 2 mph 4 mph 46% 0 in 283 W/m2
16:11 61.9 °F 40.3 °F 30.4 in East 2 mph 4 mph 45% 0 in 271 W/m2
16:16 61.7 °F 39.6 °F 30.4 in ENE 0.9 mph 3 mph 44% 0 in 258 W/m2
16:21 61.7 °F 40.1 °F 30.4 in ESE 2.9 mph 4 mph 45% 0 in 232 W/m2
16:26 61.5 °F 39.9 °F 30.4 in Calm   1 mph 45% 0 in 232 W/m2
16:36 61.3 °F 39.7 °F 30.4 in Calm   2 mph 45% 0 in 114 W/m2
16:41 61.2 °F 40.3 °F 30.4 in Calm   2 mph 46% 0 in 90 W/m2
16:46 60.6 °F 39.7 °F 30.4 in ESE 2 mph 3 mph 46% 0 in 79 W/m2
16:51 60.3 °F 39.4 °F 30.4 in Calm   2 mph 46% 0 in 86 W/m2
16:56 59.7 °F 39.9 °F 30.4 in SE 0.9 mph 2 mph 48% 0 in 100 W/m2
17:01 59.4 °F 39.7 °F 30.4 in Calm   2 mph 48% 0 in 74 W/m2
17:06 59 °F 39.9 °F 30.4 in Calm     49% 0 in 58 W/m2
17:11 58.6 °F 40.1 °F 30.4 in Calm   1 mph 50% 0 in 54 W/m2
17:16 58.1 °F 39.6 °F 30.4 in NNE 0.9 mph 2 mph 50% 0 in 51 W/m2
17:21 57.6 °F 39.6 °F 30.4 in Calm   1 mph 51% 0 in 49 W/m2
17:26 57.2 °F 39.7 °F 30.4 in Calm   2 mph 52% 0 in 46 W/m2
17:31 56.8 °F 39.9 °F 30.4 in Calm   1 mph 53% 0 in 42 W/m2
17:36 56.5 °F 39.6 °F 30.4 in Calm   2 mph 53% 0 in 39 W/m2
17:41 55.9 °F 39.6 °F 30.4 in Calm   2 mph 54% 0 in 35 W/m2
17:46 55.6 °F 39.2 °F 30.4 in Calm   1 mph 54% 0 in 30 W/m2
17:51 55.2 °F 39.4 °F 30.4 in Calm   1 mph 55% 0 in 26 W/m2
17:56 54.9 °F 39.4 °F 30.4 in South 0.9 mph 1 mph 56% 0 in 21 W/m2
18:01 54.3 °F 39.4 °F 30.4 in South 0.9 mph 1 mph 57% 0 in 16 W/m2
18:06 54 °F 39.6 °F 30.4 in Calm   2 mph 58% 0 in 11 W/m2
18:11 53.4 °F 39.4 °F 30.4 in Calm     59% 0 in 7 W/m2
18:16 53.1 °F 39.6 °F 30.4 in Calm     60% 0 in 5 W/m2
18:21 52.5 °F 39.4 °F 30.4 in Calm   1 mph 61% 0 in 0 W/m2
18:26 52.2 °F 39.2 °F 30.4 in South 0.9 mph 1 mph 61% 0 in 0 W/m2
18:31 51.6 °F 39 °F 30.4 in Calm   2 mph 62% 0 in 0 W/m2
18:41 50.7 °F 39 °F 30.4 in South 0.9 mph 2 mph 64% 0 in 0 W/m2
18:46 50.5 °F 39.2 °F 30.4 in Calm   2 mph 65% 0 in 0 W/m2
18:51 50.2 °F 39.2 °F 30.4 in Calm   1 mph 66% 0 in 0 W/m2
18:56 49.8 °F 38.8 °F 30.4 in Calm   2 mph 66% 0 in 0 W/m2
19:01 49.6 °F 39.2 °F 30.4 in Calm   1 mph 67% 0 in 0 W/m2
19:06 49.5 °F 39 °F 30.4 in Calm   1 mph 67% 0 in 0 W/m2
19:11 49.3 °F 39.2 °F 30.4 in Calm   1 mph 68% 0 in 0 W/m2
19:16 49.1 °F 39 °F 30.4 in Calm     68% 0 in 0 W/m2
19:21 48.9 °F 38.8 °F 30.4 in Calm   1 mph 68% 0 in 0 W/m2
19:26 48.9 °F 38.8 °F 30.4 in Calm     68% 0 in 0 W/m2
19:31 48.7 °F 39 °F 30.4 in Calm     69% 0 in 0 W/m2
19:36 48.6 °F 38.8 °F 30.4 in Calm     69% 0 in 0 W/m2
19:41 48.6 °F 38.8 °F 30.4 in Calm     69% 0 in 0 W/m2
19:46 48.2 °F 38.5 °F 30.4 in Calm     69% 0 in 0 W/m2
19:51 48 °F 38.3 °F 30.4 in Calm     69% 0 in 0 W/m2
19:56 47.8 °F 38.5 °F 30.4 in Calm     70% 0 in 0 W/m2
20:01 47.7 °F 38.3 °F 30.4 in Calm     70% 0 in 0 W/m2
20:06 47.7 °F 38.3 °F 30.4 in Calm     70% 0 in 0 W/m2
20:11 47.3 °F 37.9 °F 30.4 in Calm     70% 0 in 0 W/m2
20:16 47.1 °F 38.1 °F 30.4 in Calm     71% 0 in 0 W/m2
20:21 46.9 °F 38.1 °F 30.4 in Calm     71% 0 in 0 W/m2
20:26 46.6 °F 38.1 °F 30.4 in Calm     72% 0 in 0 W/m2
20:31 46.6 °F 38.1 °F 30.4 in Calm     72% 0 in 0 W/m2
20:36 46.4 °F 38.3 °F 30.4 in Calm     73% 0 in 0 W/m2
20:41 46 °F 37.6 °F 30.4 in Calm     72% 0 in 0 W/m2
20:46 46 °F 37.9 °F 30.4 in Calm     73% 0 in 0 W/m2
20:51 45.9 °F 37.8 °F 30.4 in Calm     73% 0 in 0 W/m2
20:56 45.7 °F 37.6 °F 30.4 in Calm   1 mph 73% 0 in 0 W/m2
21:01 45.5 °F 37.4 °F 30.4 in Calm     73% 0 in 0 W/m2
21:06 45.3 °F 37.6 °F 30.4 in Calm   1 mph 74% 0 in 0 W/m2
21:11 45.1 °F 37.4 °F 30.4 in Calm     74% 0 in 0 W/m2
21:16 45 °F 37.2 °F 30.4 in Calm     74% 0 in 0 W/m2
21:21 45 °F 37.6 °F 30.4 in Calm     75% 0 in 0 W/m2
21:26 44.8 °F 37.4 °F 30.4 in Calm     75% 0 in 0 W/m2
21:31 44.8 °F 37.4 °F 30.4 in Calm     75% 0 in 0 W/m2
21:36 44.4 °F 37 °F 30.4 in Calm     75% 0 in 0 W/m2
21:41 44.4 °F 37 °F 30.4 in Calm     75% 0 in 0 W/m2
21:51 44.2 °F 36.9 °F 30.4 in South 1 mph 1 mph 75% 0 in 0 W/m2
21:56 43.9 °F 36.5 °F 30.4 in Calm   1 mph 75% 0 in 0 W/m2
22:01 43.7 °F 36.7 °F 30.4 in Calm     76% 0 in 0 W/m2
22:06 43.5 °F 36.5 °F 30.4 in Calm   1 mph 76% 0 in 0 W/m2
22:11 43.3 °F 36.7 °F 30.4 in Calm     77% 0 in 0 W/m2
22:16 43.2 °F 36.5 °F 30.4 in Calm   1 mph 77% 0 in 0 W/m2
22:21 43.2 °F 36.5 °F 30.4 in Calm     77% 0 in 0 W/m2
22:26 43 °F 36.3 °F 30.4 in South 1 mph 1 mph 77% 0 in 0 W/m2
22:31 42.8 °F 36.1 °F 30.4 in Calm     77% 0 in 0 W/m2
22:36 42.6 °F 36 °F 30.4 in Calm     77% 0 in 0 W/m2
22:41 42.6 °F 36.3 °F 30.4 in Calm   1 mph 78% 0 in 0 W/m2
22:46 42.4 °F 36.1 °F 30.4 in Calm     78% 0 in 0 W/m2
22:51 42.4 °F 36.1 °F 30.4 in Calm     78% 0 in 0 W/m2
22:56 42.4 °F 36.1 °F 30.4 in South 0.9 mph 2 mph 78% 0 in 0 W/m2
23:01 42.3 °F 36 °F 30.4 in Calm     78% 0 in 0 W/m2
23:06 42.3 °F 36.1 °F 30.4 in Calm   2 mph 79% 0 in 0 W/m2
23:11 42.3 °F 36.5 °F 30.4 in Calm   1 mph 80% 0 in 0 W/m2
23:17 42.3 °F 36.5 °F 30.4 in Calm     80% 0 in 0 W/m2
23:22 42.1 °F 36.3 °F 30.4 in Calm   1 mph 80% 0 in 0 W/m2
23:27 42.1 °F 36.3 °F 30.4 in Calm   1 mph 80% 0 in 0 W/m2
23:32 41.7 °F 36 °F 30.4 in Calm     80% 0 in 0 W/m2
23:37 41.5 °F 35.8 °F 30.4 in Calm   1 mph 80% 0 in 0 W/m2
23:42 41.5 °F 36.1 °F 30.4 in Calm     81% 0 in 0 W/m2
23:47 41.4 °F 36.3 °F 30.4 in Calm     82% 0 in 0 W/m2
23:52 41.4 °F 36.5 °F 30.4 in Calm     83% 0 in 0 W/m2
23:57 41.5 °F 36.7 °F 30.4 in Calm     83% 0 in 0 W/m2
Juneau County Weather
Compliments of Weather Underground - 2 mb